UAL936 KDEN-KLAX
Flight info
| Callsign | UAL936 |
|---|---|
| Flight time | N/A |
| Altitude | 28000 |
| Route | BAYLR6 TEHRU JASSE Q90 DNERO ANJLL4 |
| Aircraft | B738/M-SDE2E3FGHIRWXY/LB1 |
Departure
| Time | 2026-05-04 23:29 |
|---|---|
| Airport | Denver International Airport (KDEN) |
Arrival
| Time | N/A |
|---|---|
| Airport | Los Angeles International Airport (KLAX) |
| Time | Latitude | Longitude | Altitude | Speed | Heading |
|---|---|---|---|---|---|
| 2026-05-04 23:14 | 39.85807 | -104.67908 | 5337 ft | 0 kts | 14° |
| 2026-05-04 23:20 | 39.85805 | -104.67908 | 5365 ft | 1 kts | 14° |
| 2026-05-04 23:21 | 39.85788 | -104.67913 | 5362 ft | 3 kts | 7° |
| 2026-05-04 23:21 | 39.85769 | -104.67915 | 5363 ft | 3 kts | 353° |
| 2026-05-04 23:21 | 39.85749 | -104.67908 | 5361 ft | 3 kts | 322° |
| 2026-05-04 23:21 | 39.85739 | -104.67893 | 5363 ft | 2 kts | 275° |
| 2026-05-04 23:22 | 39.85739 | -104.67883 | 5361 ft | 1 kts | 270° |
| 2026-05-04 23:22 | 39.85739 | -104.67882 | 5361 ft | 0 kts | 270° |
| 2026-05-04 23:23 | 39.85739 | -104.67885 | 5365 ft | 3 kts | 270° |
| 2026-05-04 23:24 | 39.85738 | -104.67922 | 5365 ft | 4 kts | 270° |
| 2026-05-04 23:24 | 39.85738 | -104.67962 | 5365 ft | 9 kts | 269° |
| 2026-05-04 23:24 | 39.85737 | -104.68082 | 5365 ft | 17 kts | 267° |
| 2026-05-04 23:24 | 39.85701 | -104.68219 | 5364 ft | 16 kts | 250° |
| 2026-05-04 23:25 | 39.85688 | -104.68358 | 5364 ft | 15 kts | 269° |
| 2026-05-04 23:25 | 39.85680 | -104.68485 | 5364 ft | 13 kts | 233° |
| 2026-05-04 23:25 | 39.85594 | -104.68512 | 5363 ft | 13 kts | 181° |
| 2026-05-04 23:25 | 39.85486 | -104.68514 | 5363 ft | 19 kts | 180° |
| 2026-05-04 23:26 | 39.85341 | -104.68516 | 5363 ft | 20 kts | 181° |
| 2026-05-04 23:26 | 39.85220 | -104.68541 | 5364 ft | 17 kts | 224° |
| 2026-05-04 23:26 | 39.85202 | -104.68691 | 5363 ft | 17 kts | 269° |
| 2026-05-04 23:26 | 39.85199 | -104.68856 | 5365 ft | 20 kts | 269° |
| 2026-05-04 23:27 | 39.85196 | -104.69045 | 5365 ft | 21 kts | 269° |
| 2026-05-04 23:27 | 39.85197 | -104.69248 | 5364 ft | 24 kts | 272° |
| 2026-05-04 23:27 | 39.85201 | -104.69450 | 5364 ft | 19 kts | 270° |
| 2026-05-04 23:27 | 39.85205 | -104.69604 | 5365 ft | 15 kts | 286° |
| 2026-05-04 23:28 | 39.85302 | -104.69655 | 5364 ft | 24 kts | 0° |
| 2026-05-04 23:28 | 39.85703 | -104.69650 | 5365 ft | 90 kts | 1° |
| 2026-05-04 23:28 | 39.86534 | -104.69641 | 5363 ft | 147 kts | 360° |
| 2026-05-04 23:28 | 39.87700 | -104.69640 | 5550 ft | 181 kts | 359° |
| 2026-05-04 23:29 | 39.89032 | -104.69619 | 6071 ft | 201 kts | 1° |
| 2026-05-04 23:29 | 39.90465 | -104.69674 | 6695 ft | 208 kts | 346° |
| 2026-05-04 23:29 | 39.91680 | -104.70713 | 7157 ft | 225 kts | 304° |
| 2026-05-04 23:29 | 39.92049 | -104.72733 | 7689 ft | 240 kts | 262° |
| 2026-05-04 23:30 | 39.91251 | -104.74623 | 8424 ft | 247 kts | 223° |
| 2026-05-04 23:30 | 39.89987 | -104.76099 | 9328 ft | 237 kts | 223° |
| 2026-05-04 23:30 | 39.88764 | -104.77515 | 10143 ft | 234 kts | 221° |
| 2026-05-04 23:30 | 39.87464 | -104.78868 | 10238 ft | 256 kts | 217° |
| 2026-05-04 23:31 | 39.85973 | -104.80318 | 10137 ft | 277 kts | 218° |
| 2026-05-04 23:31 | 39.84423 | -104.81950 | 10052 ft | 292 kts | 221° |
| 2026-05-04 23:31 | 39.82913 | -104.83694 | 10000 ft | 294 kts | 223° |
| 2026-05-04 23:31 | 39.81403 | -104.85540 | 9968 ft | 293 kts | 224° |
| 2026-05-04 23:32 | 39.79935 | -104.87375 | 9972 ft | 292 kts | 224° |
| 2026-05-04 23:32 | 39.78475 | -104.89212 | 9968 ft | 292 kts | 225° |
| 2026-05-04 23:32 | 39.77332 | -104.91322 | 9957 ft | 292 kts | 250° |
| 2026-05-04 23:32 | 39.76751 | -104.93892 | 10154 ft | 306 kts | 255° |
| 2026-05-04 23:33 | 39.76162 | -104.96655 | 10322 ft | 328 kts | 254° |
| 2026-05-04 23:33 | 39.75524 | -104.99590 | 10477 ft | 348 kts | 254° |
| 2026-05-04 23:33 | 39.74872 | -105.02539 | 10897 ft | 358 kts | 253° |
| 2026-05-04 23:33 | 39.74027 | -105.05571 | 11774 ft | 354 kts | 248° |
| 2026-05-04 23:34 | 39.73047 | -105.08502 | 12606 ft | 353 kts | 246° |
| 2026-05-04 23:34 | 39.72040 | -105.11431 | 13257 ft | 356 kts | 247° |
| 2026-05-04 23:34 | 39.71038 | -105.14375 | 13959 ft | 356 kts | 247° |
| 2026-05-04 23:34 | 39.70044 | -105.17345 | 14467 ft | 361 kts | 247° |
| 2026-05-04 23:35 | 39.69048 | -105.20360 | 14963 ft | 366 kts | 248° |
| 2026-05-04 23:35 | 39.68046 | -105.23411 | 15452 ft | 371 kts | 248° |
| 2026-05-04 23:35 | 39.67038 | -105.26475 | 16024 ft | 372 kts | 248° |
| 2026-05-04 23:35 | 39.66023 | -105.29561 | 16663 ft | 372 kts | 248° |
| 2026-05-04 23:36 | 39.65004 | -105.32658 | 17243 ft | 374 kts | 248° |
| 2026-05-04 23:36 | 39.63977 | -105.35768 | 17826 ft | 376 kts | 248° |
| 2026-05-04 23:36 | 39.62942 | -105.38900 | 18363 ft | 378 kts | 248° |
| 2026-05-04 23:36 | 39.61906 | -105.42042 | 18848 ft | 380 kts | 248° |
| 2026-05-04 23:37 | 39.60863 | -105.45204 | 19313 ft | 383 kts | 248° |
| 2026-05-04 23:37 | 39.59808 | -105.48399 | 19781 ft | 385 kts | 248° |
| 2026-05-04 23:37 | 39.58746 | -105.51600 | 20262 ft | 388 kts | 248° |
| 2026-05-04 23:37 | 39.57671 | -105.54827 | 20721 ft | 390 kts | 248° |
| 2026-05-04 23:38 | 39.56591 | -105.58065 | 21173 ft | 393 kts | 248° |
| 2026-05-04 23:38 | 39.55503 | -105.61322 | 21615 ft | 395 kts | 249° |
| 2026-05-04 23:38 | 39.54477 | -105.64633 | 22014 ft | 398 kts | 251° |
| 2026-05-04 23:38 | 39.53531 | -105.68023 | 22365 ft | 403 kts | 252° |
| 2026-05-04 23:39 | 39.52605 | -105.71457 | 22801 ft | 404 kts | 252° |
| 2026-05-04 23:39 | 39.51687 | -105.74868 | 23254 ft | 406 kts | 252° |
| 2026-05-04 23:39 | 39.50750 | -105.78319 | 23624 ft | 407 kts | 252° |
| 2026-05-04 23:39 | 39.49800 | -105.81781 | 24018 ft | 409 kts | 252° |
| 2026-05-04 23:40 | 39.48841 | -105.85249 | 24382 ft | 409 kts | 252° |
| 2026-05-04 23:40 | 39.47874 | -105.88727 | 24735 ft | 411 kts | 252° |
| 2026-05-04 23:40 | 39.46902 | -105.92213 | 25117 ft | 412 kts | 252° |
| 2026-05-04 23:40 | 39.45927 | -105.95705 | 25519 ft | 413 kts | 252° |
| 2026-05-04 23:41 | 39.44949 | -105.99199 | 25862 ft | 414 kts | 252° |
| 2026-05-04 23:41 | 39.44012 | -106.02544 | 26176 ft | 415 kts | 252° |
| 2026-05-04 23:41 | 39.43028 | -106.06058 | 26496 ft | 417 kts | 252° |
| 2026-05-04 23:41 | 39.42040 | -106.09578 | 26807 ft | 417 kts | 252° |
| 2026-05-04 23:42 | 39.41042 | -106.13130 | 27077 ft | 419 kts | 252° |
| 2026-05-04 23:42 | 39.40042 | -106.16681 | 27389 ft | 420 kts | 252° |
| 2026-05-04 23:42 | 39.39037 | -106.20246 | 27712 ft | 421 kts | 252° |
| 2026-05-04 23:42 | 39.38031 | -106.23815 | 28032 ft | 422 kts | 252° |
| 2026-05-04 23:43 | 39.37025 | -106.27380 | 28475 ft | 424 kts | 252° |
| 2026-05-04 23:43 | 39.36010 | -106.30973 | 28825 ft | 425 kts | 252° |
| 2026-05-04 23:43 | 39.34999 | -106.34545 | 29287 ft | 422 kts | 252° |
| 2026-05-04 23:43 | 39.33998 | -106.38079 | 29816 ft | 417 kts | 252° |
| 2026-05-04 23:44 | 39.33003 | -106.41587 | 30272 ft | 414 kts | 252° |
| 2026-05-04 23:44 | 39.32029 | -106.45016 | 30678 ft | 409 kts | 252° |
| 2026-05-04 23:44 | 39.31058 | -106.48420 | 31312 ft | 399 kts | 253° |
| 2026-05-04 23:44 | 39.30116 | -106.51727 | 32116 ft | 385 kts | 253° |
| 2026-05-04 23:45 | 39.29210 | -106.54901 | 32989 ft | 370 kts | 254° |
| 2026-05-04 23:45 | 39.28337 | -106.57964 | 33736 ft | 359 kts | 254° |
| 2026-05-04 23:45 | 39.27485 | -106.60956 | 34220 ft | 351 kts | 254° |
| 2026-05-04 23:45 | 39.26626 | -106.63863 | 34760 ft | 340 kts | 254° |
| 2026-05-04 23:46 | 39.25816 | -106.66665 | 35376 ft | 330 kts | 255° |
| 2026-05-04 23:46 | 39.25041 | -106.69419 | 35826 ft | 323 kts | 255° |
| 2026-05-04 23:46 | 39.22916 | -106.74638 | 35991 ft | 338 kts | 242° |
| 2026-05-04 23:47 | 39.20071 | -106.79552 | 36014 ft | 345 kts | 241° |
| 2026-05-04 23:47 | 39.17155 | -106.84549 | 36024 ft | 350 kts | 241° |
| 2026-05-04 23:48 | 39.14214 | -106.89576 | 35845 ft | 353 kts | 241° |
| 2026-05-04 23:48 | 39.11296 | -106.94603 | 35804 ft | 348 kts | 242° |
| 2026-05-04 23:49 | 39.08406 | -106.99561 | 35794 ft | 345 kts | 241° |
| 2026-05-04 23:49 | 39.05591 | -107.04407 | 35850 ft | 346 kts | 242° |
| 2026-05-04 23:50 | 39.02665 | -107.09383 | 35822 ft | 349 kts | 240° |
| 2026-05-04 23:50 | 38.99736 | -107.14352 | 35807 ft | 350 kts | 241° |
| 2026-05-04 23:51 | 38.96835 | -107.19379 | 35842 ft | 351 kts | 241° |
| 2026-05-04 23:51 | 38.93911 | -107.24427 | 35817 ft | 352 kts | 240° |
| 2026-05-04 23:52 | 38.90956 | -107.29492 | 35831 ft | 354 kts | 240° |
| 2026-05-04 23:52 | 38.88013 | -107.34515 | 35798 ft | 355 kts | 240° |
| 2026-05-04 23:53 | 38.85047 | -107.39561 | 35824 ft | 353 kts | 240° |
| 2026-05-04 23:53 | 38.82091 | -107.44587 | 35808 ft | 353 kts | 240° |
| 2026-05-04 23:54 | 38.79138 | -107.49591 | 35784 ft | 348 kts | 240° |
| 2026-05-04 23:54 | 38.76218 | -107.54540 | 35817 ft | 348 kts | 240° |
| 2026-05-04 23:55 | 38.73293 | -107.59496 | 35796 ft | 349 kts | 240° |
| 2026-05-04 23:56 | 38.68874 | -107.66962 | 35771 ft | 349 kts | 240° |
| 2026-05-04 23:56 | 38.65948 | -107.71900 | 35748 ft | 348 kts | 239° |
| 2026-05-04 23:57 | 38.63003 | -107.76864 | 35754 ft | 353 kts | 239° |
| 2026-05-04 23:57 | 38.60030 | -107.81858 | 35935 ft | 357 kts | 239° |
| 2026-05-04 23:58 | 38.57012 | -107.86914 | 35927 ft | 356 kts | 239° |
| 2026-05-04 23:58 | 38.54024 | -107.91916 | 35931 ft | 353 kts | 239° |
| 2026-05-04 23:59 | 38.51533 | -107.96082 | 35932 ft | 352 kts | 239° |
| 2026-05-04 23:59 | 38.48638 | -108.00918 | 35938 ft | 350 kts | 239° |
| 2026-05-05 00:00 | 38.45683 | -108.05846 | 35900 ft | 349 kts | 239° |
| 2026-05-05 00:00 | 38.42747 | -108.10740 | 35874 ft | 350 kts | 239° |
| 2026-05-05 00:01 | 38.39783 | -108.15670 | 35862 ft | 350 kts | 239° |
| 2026-05-05 00:01 | 38.36810 | -108.20609 | 35846 ft | 351 kts | 239° |
| 2026-05-05 00:02 | 38.33821 | -108.25570 | 35782 ft | 355 kts | 238° |
| 2026-05-05 00:02 | 38.30783 | -108.30602 | 35788 ft | 361 kts | 238° |
| 2026-05-05 00:03 | 38.27707 | -108.35684 | 35801 ft | 363 kts | 238° |
| 2026-05-05 00:03 | 38.24616 | -108.40782 | 35796 ft | 364 kts | 238° |
| 2026-05-05 00:04 | 38.21521 | -108.45879 | 35796 ft | 364 kts | 238° |
| 2026-05-05 00:04 | 38.18427 | -108.50965 | 35786 ft | 363 kts | 238° |
| 2026-05-05 00:05 | 38.15344 | -108.56029 | 35798 ft | 361 kts | 238° |
| 2026-05-05 00:05 | 38.12271 | -108.61068 | 35790 ft | 360 kts | 238° |
| 2026-05-05 00:06 | 38.09221 | -108.66063 | 35788 ft | 359 kts | 238° |
| 2026-05-05 00:06 | 38.06158 | -108.71071 | 35782 ft | 359 kts | 238° |
| 2026-05-05 00:07 | 38.03096 | -108.76070 | 35785 ft | 358 kts | 238° |
| 2026-05-05 00:07 | 38.00040 | -108.81052 | 35780 ft | 357 kts | 237° |
| 2026-05-05 00:08 | 37.96992 | -108.86011 | 35778 ft | 355 kts | 237° |
| 2026-05-05 00:08 | 37.93964 | -108.90941 | 35795 ft | 354 kts | 237° |
| 2026-05-05 00:09 | 37.90931 | -108.95860 | 35803 ft | 355 kts | 237° |
| 2026-05-05 00:09 | 37.87953 | -109.00682 | 35798 ft | 356 kts | 237° |
| 2026-05-05 00:10 | 37.84906 | -109.05612 | 35795 ft | 356 kts | 237° |
| 2026-05-05 00:10 | 37.81849 | -109.10549 | 35798 ft | 356 kts | 237° |
| 2026-05-05 00:11 | 37.78790 | -109.15480 | 35813 ft | 356 kts | 237° |
| 2026-05-05 00:11 | 37.75727 | -109.20414 | 35839 ft | 356 kts | 237° |
| 2026-05-05 00:12 | 37.72668 | -109.25340 | 35859 ft | 356 kts | 237° |
| 2026-05-05 00:12 | 37.69608 | -109.30255 | 35889 ft | 355 kts | 237° |
| 2026-05-05 00:13 | 37.66548 | -109.35156 | 35913 ft | 355 kts | 237° |
| 2026-05-05 00:13 | 37.63487 | -109.40054 | 35938 ft | 355 kts | 237° |
| 2026-05-05 00:14 | 37.60441 | -109.44925 | 35942 ft | 355 kts | 237° |
| 2026-05-05 00:14 | 37.57381 | -109.49809 | 35951 ft | 355 kts | 237° |